createdAt,value
2024-03-08T00:00:29.159Z,71.95
2024-03-08T00:02:55.743Z,71.80
2024-03-08T00:05:22.703Z,71.00
2024-03-08T00:07:49.663Z,71.72
2024-03-08T00:10:16.535Z,70.65
2024-03-08T00:12:45.270Z,70.07
2024-03-08T00:15:15.361Z,70.35
2024-03-08T00:17:42.984Z,70.56
2024-03-08T00:20:09.893Z,70.38
2024-03-08T00:22:37.138Z,70.12
2024-03-08T00:25:04.811Z,70.69
2024-03-08T00:27:34.746Z,71.63
2024-03-08T00:30:01.865Z,70.49
2024-03-08T00:32:28.762Z,70.01
2024-03-08T00:34:55.655Z,70.47
2024-03-08T00:37:23.031Z,70.52
2024-03-08T00:39:53.193Z,69.72
2024-03-08T00:42:21.339Z,69.99
2024-03-08T00:44:49.330Z,69.30
2024-03-08T00:47:16.004Z,69.45
2024-03-08T00:49:43.197Z,70.39
2024-03-08T00:52:10.168Z,69.18
2024-03-08T00:54:39.625Z,69.06
2024-03-08T00:57:08.029Z,69.58
2024-03-08T00:59:35.033Z,68.98
2024-03-08T01:02:03.002Z,69.16
2024-03-08T01:04:34.095Z,68.83
2024-03-08T01:07:01.056Z,70.16
2024-03-08T01:09:28.525Z,70.11
2024-03-08T01:11:58.383Z,70.03
2024-03-08T01:14:27.044Z,68.91
2024-03-08T01:16:53.823Z,69.09
2024-03-08T01:19:20.369Z,69.50
2024-03-08T01:21:47.509Z,69.81
2024-03-08T01:24:14.242Z,69.57
2024-03-08T01:26:40.975Z,69.93
2024-03-08T01:29:07.682Z,69.75
2024-03-08T01:31:34.860Z,69.39
2024-03-08T01:34:01.405Z,69.66
2024-03-08T01:36:27.931Z,69.73
2024-03-08T01:38:54.836Z,70.04
2024-03-08T01:41:21.430Z,70.17
2024-03-08T01:43:48.057Z,69.68
2024-03-08T01:46:18.695Z,70.16
2024-03-08T01:48:46.180Z,69.80
2024-03-08T01:51:13.549Z,69.37
2024-03-08T01:53:41.356Z,69.26
2024-03-08T01:56:08.031Z,69.74
2024-03-08T01:58:35.107Z,69.47
2024-03-08T02:01:05.532Z,69.73
2024-03-08T02:03:33.019Z,69.45
2024-03-08T02:06:02.307Z,69.38
2024-03-08T02:08:30.456Z,69.31
2024-03-08T02:10:57.045Z,70.02
2024-03-08T02:13:23.599Z,69.08
2024-03-08T02:16:00.410Z,68.32
2024-03-08T02:18:28.534Z,68.92
2024-03-08T02:21:05.833Z,69.64
2024-03-08T02:23:33.264Z,68.70
2024-03-08T02:26:00.218Z,68.31
2024-03-08T02:28:26.731Z,69.50
2024-03-08T02:30:59.673Z,68.36
2024-03-08T02:33:28.242Z,69.06
2024-03-08T02:35:55.012Z,68.73
2024-03-08T02:38:23.366Z,68.77
2024-03-08T02:40:52.306Z,68.67
2024-03-08T02:43:20.649Z,69.10
2024-03-08T02:45:47.803Z,67.77
2024-03-08T02:48:15.734Z,67.79
2024-03-08T02:50:43.911Z,68.06
2024-03-08T02:53:11.380Z,67.42
2024-03-08T02:55:40.325Z,67.88
2024-03-08T02:58:09.817Z,68.12
2024-03-08T03:00:37.185Z,67.07
2024-03-08T03:03:04.430Z,67.39
2024-03-08T03:05:31.411Z,67.88
2024-03-08T03:07:59.289Z,67.85
2024-03-08T03:10:26.948Z,67.83
2024-03-08T03:12:53.889Z,68.16
2024-03-08T03:15:21.077Z,67.73
2024-03-08T03:17:49.352Z,68.16
2024-03-08T03:20:22.749Z,67.60
2024-03-08T03:22:55.567Z,67.82
2024-03-08T03:25:26.854Z,67.12
2024-03-08T03:27:54.189Z,68.18
2024-03-08T03:30:22.388Z,67.89
2024-03-08T03:32:52.447Z,67.47
2024-03-08T03:35:21.675Z,67.58
2024-03-08T03:38:07.154Z,67.57
2024-03-08T03:40:41.496Z,66.75
2024-03-08T03:43:08.936Z,67.38
2024-03-08T03:45:37.166Z,68.35
2024-03-08T03:48:06.359Z,68.66
2024-03-08T03:50:35.976Z,68.03
2024-03-08T03:53:09.518Z,68.20
2024-03-08T03:55:39.961Z,67.28
2024-03-08T03:58:07.488Z,67.52
2024-03-08T04:00:34.040Z,67.42
2024-03-08T04:03:01.983Z,68.06
2024-03-08T04:05:29.065Z,67.77
2024-03-08T04:07:55.794Z,68.09
2024-03-08T04:10:22.543Z,67.65
2024-03-08T04:12:49.040Z,68.38
2024-03-08T04:15:16.496Z,68.04
2024-03-08T04:17:43.234Z,68.29
2024-03-08T04:20:11.370Z,67.78
2024-03-08T04:22:39.072Z,68.41
2024-03-08T04:25:06.873Z,68.03
2024-03-08T04:27:37.034Z,66.99
2024-03-08T04:30:04.482Z,67.14
2024-03-08T04:32:33.552Z,67.72
2024-03-08T04:35:02.384Z,67.12
2024-03-08T04:37:30.854Z,67.40
2024-03-08T04:39:57.904Z,68.13
2024-03-08T04:42:25.310Z,67.64
2024-03-08T04:44:52.258Z,67.26
2024-03-08T04:47:19.078Z,67.61
2024-03-08T04:49:45.803Z,68.36
2024-03-08T04:52:13.214Z,67.38
2024-03-08T04:54:40.191Z,67.17
2024-03-08T04:57:09.253Z,67.44
2024-03-08T04:59:37.527Z,67.88
2024-03-08T05:02:04.630Z,68.53
2024-03-08T05:04:31.344Z,68.80
2024-03-08T05:06:58.262Z,67.75
2024-03-08T05:09:24.920Z,67.77
2024-03-08T05:11:51.730Z,66.85
2024-03-08T05:14:18.558Z,66.78
2024-03-08T05:16:49.878Z,66.97
2024-03-08T05:19:20.823Z,67.23
2024-03-08T05:21:48.203Z,67.41
2024-03-08T05:24:16.623Z,67.28
2024-03-08T05:26:43.853Z,67.75
2024-03-08T05:29:10.833Z,67.40
2024-03-08T05:31:59.049Z,67.64
2024-03-08T05:34:26.027Z,66.97
2024-03-08T05:36:52.743Z,67.62
2024-03-08T05:39:20.921Z,68.09
2024-03-08T05:41:48.027Z,67.74
2024-03-08T05:44:18.914Z,67.29
2024-03-08T05:46:45.806Z,67.48
2024-03-08T05:49:14.009Z,68.73
2024-03-08T05:51:41.546Z,68.49
2024-03-08T05:54:14.605Z,68.40
2024-03-08T05:56:49.365Z,69.23
2024-03-08T05:59:21.082Z,68.20
2024-03-08T06:01:57.010Z,66.93
2024-03-08T06:04:26.737Z,67.96
2024-03-08T06:06:56.811Z,68.69
2024-03-08T06:09:25.179Z,68.75
2024-03-08T06:11:55.759Z,68.54
2024-03-08T06:14:22.948Z,68.63
2024-03-08T06:16:51.562Z,68.44
2024-03-08T06:19:18.508Z,67.93
2024-03-08T06:21:45.116Z,67.67
2024-03-08T06:24:11.842Z,67.79
2024-03-08T06:26:40.070Z,67.65
2024-03-08T06:29:08.079Z,68.14
2024-03-08T06:31:34.842Z,67.85
2024-03-08T06:34:01.717Z,68.26
2024-03-08T06:36:29.338Z,68.10
2024-03-08T06:38:56.091Z,67.36
2024-03-08T06:41:22.663Z,67.63
2024-03-08T06:43:50.244Z,66.90
2024-03-08T06:46:17.370Z,67.65
2024-03-08T06:48:44.759Z,68.00
2024-03-08T06:51:12.225Z,68.12
2024-03-08T06:53:39.810Z,68.29
2024-03-08T06:56:06.736Z,68.02
2024-03-08T06:58:33.901Z,68.37
2024-03-08T07:01:02.371Z,68.41
2024-03-08T07:03:30.684Z,68.32
2024-03-08T07:05:59.509Z,68.54
2024-03-08T07:08:28.809Z,67.58
2024-03-08T07:10:55.927Z,67.59
2024-03-08T07:13:22.636Z,67.21
2024-03-08T07:15:49.262Z,67.56
2024-03-08T07:18:16.448Z,66.61
2024-03-08T07:20:44.796Z,67.07
2024-03-08T07:23:11.860Z,66.61
2024-03-08T07:25:40.748Z,67.29
2024-03-08T07:28:09.678Z,66.19
2024-03-08T07:30:47.370Z,67.14
2024-03-08T07:33:14.449Z,68.09
2024-03-08T07:35:42.195Z,68.02
2024-03-08T07:38:11.295Z,67.65
2024-03-08T07:40:48.615Z,67.33
2024-03-08T07:43:15.445Z,67.54
2024-03-08T07:45:41.965Z,67.10
2024-03-08T07:48:12.527Z,67.05
2024-03-08T07:50:41.215Z,67.40
2024-03-08T07:53:09.451Z,67.11
2024-03-08T07:55:37.098Z,67.82
2024-03-08T07:58:04.536Z,67.72
2024-03-08T08:00:33.119Z,67.20
2024-03-08T08:03:00.013Z,66.99
2024-03-08T08:05:27.590Z,66.68
2024-03-08T08:07:54.626Z,67.18
2024-03-08T08:10:26.685Z,66.48
2024-03-08T08:12:53.679Z,66.61
2024-03-08T08:15:20.606Z,66.96
2024-03-08T08:17:48.973Z,66.52
2024-03-08T08:20:16.397Z,67.21
2024-03-08T08:22:46.790Z,66.87
2024-03-08T08:25:14.690Z,66.83
2024-03-08T08:27:41.549Z,67.26
2024-03-08T08:30:09.693Z,66.53
2024-03-08T08:32:48.399Z,66.46
2024-03-08T08:35:15.397Z,65.82
2024-03-08T08:37:42.535Z,66.10
2024-03-08T08:40:16.315Z,66.76
2024-03-08T08:42:43.804Z,66.68
2024-03-08T08:45:16.021Z,67.46
2024-03-08T08:47:44.391Z,67.53
2024-03-08T08:50:12.906Z,67.23
2024-03-08T08:52:40.959Z,67.73
2024-03-08T08:55:07.924Z,69.35
2024-03-08T08:57:34.487Z,68.45
2024-03-08T09:00:01.621Z,68.82
2024-03-08T09:02:28.635Z,68.31
2024-03-08T09:04:55.421Z,68.46
2024-03-08T09:07:22.605Z,68.48
2024-03-08T09:09:49.206Z,69.00
2024-03-08T09:12:15.828Z,69.00
2024-03-08T09:14:42.479Z,68.58
2024-03-08T09:17:09.704Z,69.30
2024-03-08T09:19:37.771Z,68.71
2024-03-08T09:22:05.625Z,68.80
2024-03-08T09:24:32.540Z,68.86
2024-03-08T09:27:01.649Z,69.01
2024-03-08T09:29:28.275Z,69.82
2024-03-08T09:31:55.070Z,69.43
2024-03-08T09:34:25.745Z,69.84
2024-03-08T09:36:57.288Z,68.92
2024-03-08T09:39:25.681Z,69.27
2024-03-08T09:41:53.565Z,68.49
2024-03-08T09:44:20.677Z,68.16
2024-03-08T09:46:53.592Z,68.18
2024-03-08T09:49:20.857Z,68.31
2024-03-08T09:51:49.742Z,68.75
2024-03-08T09:54:22.975Z,67.74
2024-03-08T09:56:52.655Z,67.81
2024-03-08T09:59:28.344Z,68.05
2024-03-08T10:02:00.217Z,67.56
2024-03-08T10:04:29.611Z,67.37
2024-03-08T10:06:58.129Z,67.54
2024-03-08T10:09:26.301Z,67.24
2024-03-08T10:11:58.961Z,67.93
2024-03-08T10:14:27.758Z,66.82
2024-03-08T10:16:54.489Z,67.36
2024-03-08T10:19:21.823Z,67.34
2024-03-08T10:21:50.095Z,66.93
2024-03-08T10:24:16.696Z,67.04
2024-03-08T10:26:45.200Z,66.54
2024-03-08T10:29:16.527Z,66.60
2024-03-08T10:31:46.534Z,66.26
2024-03-08T10:34:13.691Z,66.71
2024-03-08T10:36:41.659Z,67.12
2024-03-08T10:39:37.894Z,66.14
2024-03-08T10:42:06.110Z,65.78
2024-03-08T10:44:45.508Z,66.42
2024-03-08T10:47:18.905Z,65.99
2024-03-08T10:50:10.991Z,65.18
2024-03-08T10:52:40.548Z,65.59
2024-03-08T10:55:13.643Z,64.92
2024-03-08T10:57:42.471Z,65.55
2024-03-08T11:00:12.609Z,64.58
2024-03-08T11:02:39.353Z,65.02
2024-03-08T11:05:07.540Z,65.70
2024-03-08T11:07:37.163Z,65.35
2024-03-08T11:10:07.012Z,65.13
2024-03-08T11:12:38.287Z,65.04
2024-03-08T11:15:19.900Z,64.79
2024-03-08T11:17:50.434Z,64.73
2024-03-08T11:20:24.269Z,64.87
2024-03-08T11:22:52.805Z,64.05
2024-03-08T11:25:33.103Z,63.93
2024-03-08T11:28:09.000Z,64.60
2024-03-08T11:30:35.551Z,64.72
2024-03-08T11:33:04.603Z,64.64
2024-03-08T11:35:31.233Z,64.68
2024-03-08T11:38:01.770Z,64.32
2024-03-08T11:40:28.612Z,64.43
2024-03-08T11:42:56.444Z,63.87
2024-03-08T11:45:23.021Z,63.28
2024-03-08T11:47:50.636Z,62.77
2024-03-08T11:50:20.301Z,62.98
2024-03-08T11:52:47.845Z,63.21
2024-03-08T11:55:14.811Z,62.76
2024-03-08T11:57:43.168Z,63.02
2024-03-08T12:00:24.865Z,63.21
2024-03-08T12:03:04.540Z,63.13
2024-03-08T12:05:32.397Z,61.95
2024-03-08T12:08:00.068Z,61.96
2024-03-08T12:10:27.510Z,61.76
2024-03-08T12:12:55.773Z,61.46
2024-03-08T12:15:24.017Z,61.96
2024-03-08T12:17:52.951Z,61.07
2024-03-08T12:20:24.202Z,60.78
2024-03-08T12:22:53.811Z,61.33
2024-03-08T12:25:21.712Z,61.25
2024-03-08T12:27:48.480Z,61.68
2024-03-08T12:30:23.211Z,61.12
2024-03-08T12:32:57.935Z,61.22
2024-03-08T12:35:26.878Z,60.97
2024-03-08T12:37:55.635Z,60.65
2024-03-08T12:40:29.893Z,60.84
2024-03-08T12:42:57.274Z,60.83
2024-03-08T12:45:25.304Z,60.25
2024-03-08T12:47:52.933Z,60.55
2024-03-08T12:50:20.084Z,60.10
2024-03-08T12:52:46.624Z,60.34
2024-03-08T12:55:13.790Z,60.38
2024-03-08T12:57:40.469Z,59.76
2024-03-08T13:00:07.977Z,59.57
2024-03-08T13:02:34.448Z,59.97
2024-03-08T13:05:01.086Z,59.72
2024-03-08T13:07:30.461Z,60.69
2024-03-08T13:09:58.145Z,60.22
2024-03-08T13:12:24.923Z,60.46
2024-03-08T13:14:51.527Z,60.20
2024-03-08T13:17:19.388Z,60.02
2024-03-08T13:19:46.134Z,60.33
2024-03-08T13:22:17.588Z,60.22
2024-03-08T13:24:46.347Z,60.61
2024-03-08T13:27:23.129Z,60.45
2024-03-08T13:29:50.043Z,60.84
2024-03-08T13:32:17.241Z,61.81
2024-03-08T13:34:45.997Z,60.74
2024-03-08T13:37:12.829Z,60.07
2024-03-08T13:39:42.255Z,60.62
2024-03-08T13:42:10.948Z,60.68
2024-03-08T13:44:38.031Z,59.50
2024-03-08T13:47:05.911Z,59.06
2024-03-08T13:49:33.118Z,58.90
2024-03-08T13:52:02.533Z,59.24
2024-03-08T13:54:31.763Z,58.70
2024-03-08T13:56:59.399Z,58.73
2024-03-08T13:59:26.089Z,58.68
2024-03-08T14:01:52.686Z,58.98
2024-03-08T14:04:19.288Z,59.36
2024-03-08T14:06:46.232Z,59.73
2024-03-08T14:09:18.840Z,59.35
2024-03-08T14:11:45.516Z,59.04
2024-03-08T14:14:15.689Z,59.37
2024-03-08T14:16:42.336Z,59.28
2024-03-08T14:19:11.154Z,59.08
2024-03-08T14:21:40.277Z,58.91
2024-03-08T14:24:07.747Z,58.74
2024-03-08T14:26:35.151Z,59.10
2024-03-08T14:29:01.826Z,58.84
2024-03-08T14:31:29.217Z,59.51
2024-03-08T14:33:56.942Z,59.83
2024-03-08T14:36:24.654Z,58.67
2024-03-08T14:38:51.148Z,59.21
2024-03-08T14:41:17.782Z,60.28
2024-03-08T14:43:46.058Z,59.24
2024-03-08T14:46:18.549Z,59.17
2024-03-08T14:48:46.513Z,59.37
2024-03-08T14:51:15.437Z,59.82
2024-03-08T14:53:42.282Z,59.32
2024-03-08T14:56:09.771Z,59.75
2024-03-08T14:58:36.619Z,60.15
2024-03-08T15:01:03.905Z,60.61
2024-03-08T15:03:30.988Z,60.60
2024-03-08T15:05:57.595Z,61.40
2024-03-08T15:08:25.678Z,61.28
2024-03-08T15:10:55.548Z,61.08
2024-03-08T15:13:24.048Z,61.11
2024-03-08T15:15:55.971Z,61.59
2024-03-08T15:18:26.895Z,61.56
2024-03-08T15:20:54.236Z,62.19
2024-03-08T15:23:21.766Z,62.14
2024-03-08T15:25:50.216Z,61.81
2024-03-08T15:28:20.382Z,62.07
2024-03-08T15:30:55.397Z,62.10
2024-03-08T15:33:26.816Z,62.28
2024-03-08T15:35:59.901Z,62.46
2024-03-08T15:38:28.666Z,62.29
2024-03-08T15:40:56.100Z,62.07
2024-03-08T15:43:23.477Z,62.56
2024-03-08T15:45:50.189Z,62.10
2024-03-08T15:48:17.448Z,62.13
2024-03-08T15:50:44.117Z,62.39
2024-03-08T15:53:13.984Z,63.40
2024-03-08T15:55:42.405Z,63.31
2024-03-08T15:58:11.376Z,63.49
2024-03-08T16:00:46.830Z,62.77
2024-03-08T16:03:15.803Z,63.72
2024-03-08T16:05:44.963Z,63.43
2024-03-08T16:08:19.232Z,63.02
2024-03-08T16:10:50.690Z,63.07
2024-03-08T16:13:18.699Z,63.55
2024-03-08T16:15:47.629Z,63.13
2024-03-08T16:18:16.625Z,63.66
2024-03-08T16:20:48.274Z,63.87
2024-03-08T16:23:17.691Z,63.69
2024-03-08T16:25:44.811Z,64.13
2024-03-08T16:28:12.277Z,64.42
2024-03-08T16:30:40.902Z,63.78
2024-03-08T16:33:07.874Z,63.53
2024-03-08T16:35:37.068Z,64.23
2024-03-08T16:38:03.855Z,64.56
2024-03-08T16:40:30.998Z,64.32
2024-03-08T16:42:57.581Z,63.65
2024-03-08T16:45:24.714Z,63.92
2024-03-08T16:47:57.309Z,64.31
2024-03-08T16:50:24.538Z,64.18
2024-03-08T16:52:56.601Z,64.83
2024-03-08T16:55:25.324Z,65.16
2024-03-08T16:57:51.922Z,65.21
2024-03-08T17:00:23.504Z,65.11
2024-03-08T17:02:50.998Z,64.87
2024-03-08T17:05:17.975Z,64.62
2024-03-08T17:07:49.666Z,64.25
2024-03-08T17:10:19.218Z,64.38
2024-03-08T17:12:50.626Z,64.80
2024-03-08T17:15:23.846Z,65.16
2024-03-08T17:17:54.090Z,64.98
2024-03-08T17:20:22.781Z,64.93
2024-03-08T17:22:50.954Z,64.87
2024-03-08T17:25:21.331Z,64.84
2024-03-08T17:27:55.593Z,65.14
2024-03-08T17:30:28.024Z,67.02
2024-03-08T17:33:00.339Z,66.64
2024-03-08T17:35:29.690Z,67.05
2024-03-08T17:37:57.910Z,67.29
2024-03-08T17:40:26.997Z,67.51
2024-03-08T17:42:55.565Z,67.99
2024-03-08T17:45:24.051Z,68.34
2024-03-08T17:47:51.898Z,69.30
2024-03-08T17:50:19.609Z,69.87
2024-03-08T17:52:47.527Z,70.40
2024-03-08T17:55:15.102Z,71.15
2024-03-08T17:57:48.907Z,71.80
2024-03-08T18:00:40.023Z,71.88
2024-03-08T18:03:06.824Z,72.72
2024-03-08T18:05:33.787Z,72.85
2024-03-08T18:08:01.754Z,73.32
2024-03-08T18:10:31.065Z,73.20
2024-03-08T18:12:59.865Z,73.38
2024-03-08T18:15:27.595Z,73.41
2024-03-08T18:17:56.476Z,73.42
2024-03-08T18:20:32.349Z,73.52
2024-03-08T18:23:03.930Z,73.57
2024-03-08T18:25:32.419Z,73.77
2024-03-08T18:28:06.875Z,74.01
2024-03-08T18:30:34.040Z,74.01
2024-03-08T18:33:00.612Z,74.14
2024-03-08T18:35:27.313Z,73.62
2024-03-08T18:37:57.067Z,73.60
2024-03-08T18:40:24.596Z,72.74
2024-03-08T18:42:52.761Z,72.83
2024-03-08T18:45:21.939Z,72.93
2024-03-08T18:47:50.526Z,73.20
2024-03-08T18:50:25.377Z,72.59
2024-03-08T18:52:53.077Z,73.11
2024-03-08T18:55:25.300Z,72.73
2024-03-08T18:57:55.754Z,72.65
2024-03-08T19:00:22.760Z,72.39
2024-03-08T19:02:50.976Z,72.04
2024-03-08T19:05:18.342Z,72.43
2024-03-08T19:07:46.407Z,72.29
2024-03-08T19:10:15.386Z,72.80
2024-03-08T19:12:44.558Z,72.34
2024-03-08T19:15:11.364Z,72.57
2024-03-08T19:17:38.145Z,72.80
2024-03-08T19:20:07.566Z,72.36
2024-03-08T19:22:34.198Z,72.17
2024-03-08T19:25:03.176Z,72.00
2024-03-08T19:27:29.739Z,71.88
2024-03-08T19:29:56.330Z,72.08
2024-03-08T19:32:22.899Z,71.65
2024-03-08T19:34:51.785Z,71.70
2024-03-08T19:37:18.462Z,71.88
2024-03-08T19:39:45.894Z,72.08
2024-03-08T19:42:13.241Z,72.10
2024-03-08T19:44:40.512Z,72.20
2024-03-08T19:47:09.174Z,72.06
2024-03-08T19:49:36.671Z,72.22
2024-03-08T19:52:05.118Z,72.76
2024-03-08T19:54:33.622Z,72.91
2024-03-08T19:57:08.857Z,72.69
2024-03-08T19:59:42.836Z,72.47
2024-03-08T20:02:09.958Z,72.72
2024-03-08T20:04:36.825Z,72.81
2024-03-08T20:07:03.515Z,72.90
2024-03-08T20:09:30.434Z,72.84
2024-03-08T20:11:59.674Z,72.21
2024-03-08T20:14:27.665Z,72.33
2024-03-08T20:16:54.249Z,72.15
2024-03-08T20:19:23.042Z,71.65
2024-03-08T20:21:50.012Z,72.13
2024-03-08T20:24:16.675Z,71.45
2024-03-08T20:26:44.007Z,71.05
2024-03-08T20:29:12.936Z,71.01
2024-03-08T20:31:39.459Z,71.03
2024-03-08T20:34:06.664Z,70.80
2024-03-08T20:36:33.452Z,70.82
2024-03-08T20:38:59.986Z,70.95
2024-03-08T20:41:27.911Z,71.53
2024-03-08T20:43:56.286Z,71.02
2024-03-08T20:46:23.249Z,71.30
2024-03-08T20:48:50.744Z,71.57
2024-03-08T20:51:18.299Z,72.03
2024-03-08T20:53:44.820Z,71.26
2024-03-08T20:56:11.532Z,71.05
2024-03-08T20:58:39.334Z,71.29
2024-03-08T21:01:09.866Z,71.45
2024-03-08T21:03:37.757Z,71.08
2024-03-08T21:06:07.330Z,71.47
2024-03-08T21:08:35.401Z,70.99
2024-03-08T21:11:02.030Z,71.36
2024-03-08T21:13:29.038Z,71.82
2024-03-08T21:15:56.836Z,71.30
2024-03-08T21:18:25.973Z,71.39
2024-03-08T21:20:53.707Z,71.08
2024-03-08T21:23:20.620Z,71.14
2024-03-08T21:25:47.409Z,70.80
2024-03-08T21:28:16.523Z,70.77
2024-03-08T21:30:43.034Z,71.01
2024-03-08T21:33:12.382Z,71.00
2024-03-08T21:35:40.246Z,71.33
2024-03-08T21:38:08.241Z,70.61
2024-03-08T21:40:37.397Z,70.31
2024-03-08T21:43:04.923Z,70.79
2024-03-08T21:45:32.442Z,70.93
2024-03-08T21:48:04.244Z,71.49
2024-03-08T21:50:32.610Z,71.50
2024-03-08T21:53:01.297Z,71.29
2024-03-08T21:55:28.444Z,71.14
2024-03-08T21:57:55.290Z,71.02
2024-03-08T22:00:24.565Z,71.00
2024-03-08T22:02:51.608Z,70.92
2024-03-08T22:05:24.561Z,70.63
2024-03-08T22:07:52.094Z,70.61
2024-03-08T22:10:27.939Z,70.63
2024-03-08T22:12:56.519Z,70.32
2024-03-08T22:15:24.673Z,70.67
2024-03-08T22:17:54.067Z,70.42
2024-03-08T22:20:22.754Z,70.28
2024-03-08T22:22:50.934Z,70.23
2024-03-08T22:25:18.616Z,69.95
2024-03-08T22:27:46.031Z,70.35
2024-03-08T22:30:16.498Z,70.25
2024-03-08T22:32:43.583Z,70.58
2024-03-08T22:35:11.341Z,69.87
2024-03-08T22:37:38.037Z,69.78
2024-03-08T22:40:12.165Z,69.73
2024-03-08T22:42:45.888Z,70.21
2024-03-08T22:45:14.332Z,69.92
2024-03-08T22:47:45.268Z,69.96
2024-03-08T22:50:17.469Z,70.12
2024-03-08T22:52:46.247Z,70.04
2024-03-08T22:55:13.794Z,71.02
2024-03-08T22:57:41.367Z,70.81
2024-03-08T23:00:37.925Z,70.44
2024-03-08T23:03:09.147Z,70.62
2024-03-08T23:05:35.758Z,70.58
2024-03-08T23:08:05.245Z,70.99
2024-03-08T23:10:31.859Z,70.53
2024-03-08T23:12:58.882Z,71.01
2024-03-08T23:15:29.003Z,71.21
2024-03-08T23:17:56.898Z,70.71
2024-03-08T23:20:34.085Z,70.80
2024-03-08T23:23:05.171Z,70.67
2024-03-08T23:25:32.435Z,70.53
2024-03-08T23:28:01.728Z,70.60
2024-03-08T23:30:29.702Z,71.11
2024-03-08T23:32:59.028Z,70.79
2024-03-08T23:35:27.496Z,70.55
2024-03-08T23:37:55.279Z,70.85
2024-03-08T23:40:22.020Z,70.49
2024-03-08T23:42:52.247Z,70.75
2024-03-08T23:45:22.042Z,71.11
2024-03-08T23:47:56.888Z,70.75
2024-03-08T23:50:30.969Z,70.93
2024-03-08T23:52:59.751Z,71.07
2024-03-08T23:55:30.280Z,70.63
2024-03-08T23:57:57.808Z,71.41
